sensor_id;sensor_type;location;lat;lon;timestamp;P1;durP1;ratioP1;P2;durP2;ratioP2
9940;SDS011;5009;50.656;7.188;2022-08-19T00:01:35;10.27;;;9.27;;
9940;SDS011;5009;50.656;7.188;2022-08-19T00:04:03;10.43;;;9.52;;
9940;SDS011;5009;50.656;7.188;2022-08-19T00:06:30;10.23;;;9.43;;
9940;SDS011;5009;50.656;7.188;2022-08-19T00:08:56;9.90;;;9.05;;
9940;SDS011;5009;50.656;7.188;2022-08-19T00:11:25;10.32;;;9.40;;
9940;SDS011;5009;50.656;7.188;2022-08-19T00:13:52;10.77;;;9.88;;
9940;SDS011;5009;50.656;7.188;2022-08-19T00:16:19;10.95;;;9.98;;
9940;SDS011;5009;50.656;7.188;2022-08-19T00:18:47;11.25;;;10.15;;
9940;SDS011;5009;50.656;7.188;2022-08-19T00:21:13;12.50;;;9.80;;
9940;SDS011;5009;50.656;7.188;2022-08-19T00:23:39;10.23;;;9.43;;
9940;SDS011;5009;50.656;7.188;2022-08-19T00:26:05;9.82;;;9.02;;
9940;SDS011;5009;50.656;7.188;2022-08-19T00:28:32;9.95;;;9.15;;
9940;SDS011;5009;50.656;7.188;2022-08-19T00:30:58;9.27;;;8.48;;
9940;SDS011;5009;50.656;7.188;2022-08-19T00:33:24;10.45;;;9.52;;
9940;SDS011;5009;50.656;7.188;2022-08-19T00:35:50;10.75;;;9.85;;
9940;SDS011;5009;50.656;7.188;2022-08-19T00:38:16;11.00;;;10.00;;
9940;SDS011;5009;50.656;7.188;2022-08-19T00:40:42;10.07;;;9.27;;
9940;SDS011;5009;50.656;7.188;2022-08-19T00:43:11;10.55;;;9.65;;
9940;SDS011;5009;50.656;7.188;2022-08-19T00:45:38;10.10;;;9.20;;
9940;SDS011;5009;50.656;7.188;2022-08-19T00:48:06;10.02;;;9.05;;
9940;SDS011;5009;50.656;7.188;2022-08-19T00:50:32;9.98;;;8.93;;
9940;SDS011;5009;50.656;7.188;2022-08-19T00:52:59;10.80;;;9.80;;
9940;SDS011;5009;50.656;7.188;2022-08-19T00:55:26;10.30;;;9.40;;
9940;SDS011;5009;50.656;7.188;2022-08-19T00:57:58;10.70;;;9.80;;
9940;SDS011;5009;50.656;7.188;2022-08-19T01:00:31;10.35;;;9.45;;
9940;SDS011;5009;50.656;7.188;2022-08-19T01:03:01;9.77;;;8.98;;
9940;SDS011;5009;50.656;7.188;2022-08-19T01:05:27;10.02;;;9.23;;
9940;SDS011;5009;50.656;7.188;2022-08-19T01:07:54;10.80;;;9.80;;
9940;SDS011;5009;50.656;7.188;2022-08-19T01:10:23;11.18;;;10.18;;
9940;SDS011;5009;50.656;7.188;2022-08-19T01:12:51;9.88;;;9.07;;
9940;SDS011;5009;50.656;7.188;2022-08-19T01:15:20;10.57;;;9.57;;
9940;SDS011;5009;50.656;7.188;2022-08-19T01:17:49;9.45;;;8.75;;
9940;SDS011;5009;50.656;7.188;2022-08-19T01:20:17;10.05;;;9.15;;
9940;SDS011;5009;50.656;7.188;2022-08-19T01:22:46;9.48;;;8.65;;
9940;SDS011;5009;50.656;7.188;2022-08-19T01:25:22;9.48;;;8.60;;
9940;SDS011;5009;50.656;7.188;2022-08-19T01:28:07;9.63;;;8.77;;
9940;SDS011;5009;50.656;7.188;2022-08-19T01:30:33;10.05;;;9.15;;
9940;SDS011;5009;50.656;7.188;2022-08-19T01:33:00;9.40;;;8.70;;
9940;SDS011;5009;50.656;7.188;2022-08-19T01:35:27;9.82;;;8.93;;
9940;SDS011;5009;50.656;7.188;2022-08-19T01:38:05;9.77;;;8.88;;
9940;SDS011;5009;50.656;7.188;2022-08-19T01:40:36;10.60;;;9.70;;
9940;SDS011;5009;50.656;7.188;2022-08-19T01:43:04;9.55;;;8.70;;
9940;SDS011;5009;50.656;7.188;2022-08-19T01:45:31;10.68;;;9.65;;
9940;SDS011;5009;50.656;7.188;2022-08-19T01:47:58;9.13;;;8.48;;
9940;SDS011;5009;50.656;7.188;2022-08-19T01:50:24;10.30;;;9.40;;
9940;SDS011;5009;50.656;7.188;2022-08-19T01:52:50;10.65;;;9.75;;
9940;SDS011;5009;50.656;7.188;2022-08-19T01:55:17;10.25;;;9.35;;
9940;SDS011;5009;50.656;7.188;2022-08-19T01:57:46;10.18;;;9.30;;
9940;SDS011;5009;50.656;7.188;2022-08-19T02:00:17;9.93;;;9.15;;
9940;SDS011;5009;50.656;7.188;2022-08-19T02:02:44;10.30;;;9.50;;
9940;SDS011;5009;50.656;7.188;2022-08-19T02:05:10;10.85;;;9.95;;
9940;SDS011;5009;50.656;7.188;2022-08-19T02:07:36;10.77;;;9.88;;
9940;SDS011;5009;50.656;7.188;2022-08-19T02:10:03;10.10;;;9.13;;
9940;SDS011;5009;50.656;7.188;2022-08-19T02:12:30;10.88;;;9.93;;
9940;SDS011;5009;50.656;7.188;2022-08-19T02:14:56;10.38;;;9.52;;
9940;SDS011;5009;50.656;7.188;2022-08-19T02:17:21;11.00;;;10.10;;
9940;SDS011;5009;50.656;7.188;2022-08-19T02:19:47;10.50;;;9.60;;
9940;SDS011;5009;50.656;7.188;2022-08-19T02:22:13;10.65;;;9.63;;
9940;SDS011;5009;50.656;7.188;2022-08-19T02:24:39;10.57;;;9.68;;
9940;SDS011;5009;50.656;7.188;2022-08-19T02:27:05;10.38;;;9.55;;
9940;SDS011;5009;50.656;7.188;2022-08-19T02:29:30;9.80;;;9.00;;
9940;SDS011;5009;50.656;7.188;2022-08-19T02:31:56;10.35;;;9.45;;
9940;SDS011;5009;50.656;7.188;2022-08-19T02:34:22;10.60;;;9.65;;
9940;SDS011;5009;50.656;7.188;2022-08-19T02:36:49;10.38;;;9.48;;
9940;SDS011;5009;50.656;7.188;2022-08-19T02:39:15;9.98;;;9.18;;
9940;SDS011;5009;50.656;7.188;2022-08-19T02:41:41;10.43;;;9.57;;
9940;SDS011;5009;50.656;7.188;2022-08-19T02:44:06;9.95;;;9.10;;
9940;SDS011;5009;50.656;7.188;2022-08-19T02:46:32;10.90;;;9.93;;
9940;SDS011;5009;50.656;7.188;2022-08-19T02:49:05;10.32;;;9.43;;
9940;SDS011;5009;50.656;7.188;2022-08-19T02:51:33;10.85;;;9.80;;
9940;SDS011;5009;50.656;7.188;2022-08-19T02:54:01;10.52;;;9.73;;
9940;SDS011;5009;50.656;7.188;2022-08-19T02:56:27;10.80;;;9.90;;
9940;SDS011;5009;50.656;7.188;2022-08-19T02:58:56;10.15;;;9.35;;
9940;SDS011;5009;50.656;7.188;2022-08-19T03:01:26;10.10;;;9.30;;
9940;SDS011;5009;50.656;7.188;2022-08-19T03:03:56;10.02;;;9.25;;
9940;SDS011;5009;50.656;7.188;2022-08-19T03:06:25;10.25;;;9.40;;
9940;SDS011;5009;50.656;7.188;2022-08-19T03:08:51;10.77;;;9.82;;
9940;SDS011;5009;50.656;7.188;2022-08-19T03:11:19;9.88;;;9.07;;
9940;SDS011;5009;50.656;7.188;2022-08-19T03:13:50;10.32;;;9.40;;
9940;SDS011;5009;50.656;7.188;2022-08-19T03:16:16;10.77;;;9.93;;
9940;SDS011;5009;50.656;7.188;2022-08-19T03:18:43;9.88;;;9.02;;
9940;SDS011;5009;50.656;7.188;2022-08-19T03:21:09;10.38;;;9.57;;
9940;SDS011;5009;50.656;7.188;2022-08-19T03:23:39;11.75;;;10.75;;
9940;SDS011;5009;50.656;7.188;2022-08-19T03:26:05;12.43;;;11.35;;
9940;SDS011;5009;50.656;7.188;2022-08-19T03:28:31;11.80;;;10.90;;
9940;SDS011;5009;50.656;7.188;2022-08-19T03:30:59;11.27;;;10.38;;
9940;SDS011;5009;50.656;7.188;2022-08-19T03:33:26;11.35;;;10.38;;
9940;SDS011;5009;50.656;7.188;2022-08-19T03:36:03;10.93;;;10.02;;
9940;SDS011;5009;50.656;7.188;2022-08-19T03:38:35;10.75;;;9.75;;
9940;SDS011;5009;50.656;7.188;2022-08-19T03:41:06;11.10;;;10.30;;
9940;SDS011;5009;50.656;7.188;2022-08-19T03:43:37;10.25;;;9.45;;
9940;SDS011;5009;50.656;7.188;2022-08-19T03:46:08;10.38;;;9.55;;
9940;SDS011;5009;50.656;7.188;2022-08-19T03:48:39;11.60;;;10.45;;
9940;SDS011;5009;50.656;7.188;2022-08-19T03:51:06;11.88;;;10.75;;
9940;SDS011;5009;50.656;7.188;2022-08-19T03:53:33;11.40;;;10.50;;
9940;SDS011;5009;50.656;7.188;2022-08-19T03:56:00;11.40;;;10.50;;
9940;SDS011;5009;50.656;7.188;2022-08-19T03:58:27;11.20;;;10.20;;
9940;SDS011;5009;50.656;7.188;2022-08-19T04:00:57;10.95;;;9.85;;
9940;SDS011;5009;50.656;7.188;2022-08-19T04:03:23;10.40;;;9.70;;
9940;SDS011;5009;50.656;7.188;2022-08-19T04:05:50;11.15;;;10.15;;
9940;SDS011;5009;50.656;7.188;2022-08-19T04:08:15;11.18;;;10.25;;
9940;SDS011;5009;50.656;7.188;2022-08-19T04:10:44;12.10;;;10.90;;
9940;SDS011;5009;50.656;7.188;2022-08-19T04:13:11;11.50;;;10.50;;
9940;SDS011;5009;50.656;7.188;2022-08-19T04:15:40;11.60;;;10.60;;
9940;SDS011;5009;50.656;7.188;2022-08-19T04:18:08;11.90;;;10.90;;
9940;SDS011;5009;50.656;7.188;2022-08-19T04:20:42;10.90;;;9.93;;
9940;SDS011;5009;50.656;7.188;2022-08-19T04:23:09;11.52;;;10.60;;
9940;SDS011;5009;50.656;7.188;2022-08-19T04:25:42;12.38;;;11.15;;
9940;SDS011;5009;50.656;7.188;2022-08-19T04:28:10;11.52;;;10.52;;
9940;SDS011;5009;50.656;7.188;2022-08-19T04:30:44;12.10;;;11.00;;
9940;SDS011;5009;50.656;7.188;2022-08-19T04:33:11;11.68;;;10.77;;
9940;SDS011;5009;50.656;7.188;2022-08-19T04:35:42;12.15;;;11.05;;
9940;SDS011;5009;50.656;7.188;2022-08-19T04:38:12;11.68;;;10.68;;
9940;SDS011;5009;50.656;7.188;2022-08-19T04:40:48;11.73;;;10.82;;
9940;SDS011;5009;50.656;7.188;2022-08-19T04:43:34;11.75;;;10.85;;
9940;SDS011;5009;50.656;7.188;2022-08-19T04:46:08;12.00;;;10.85;;
9940;SDS011;5009;50.656;7.188;2022-08-19T04:48:35;12.77;;;11.10;;
9940;SDS011;5009;50.656;7.188;2022-08-19T04:51:05;12.88;;;11.65;;
9940;SDS011;5009;50.656;7.188;2022-08-19T04:53:34;12.35;;;11.35;;
9940;SDS011;5009;50.656;7.188;2022-08-19T04:56:03;12.32;;;11.13;;
9940;SDS011;5009;50.656;7.188;2022-08-19T04:58:35;11.93;;;10.93;;
9940;SDS011;5009;50.656;7.188;2022-08-19T05:01:02;11.88;;;10.77;;
9940;SDS011;5009;50.656;7.188;2022-08-19T05:03:28;13.43;;;12.00;;
9940;SDS011;5009;50.656;7.188;2022-08-19T05:05:58;12.75;;;11.55;;
9940;SDS011;5009;50.656;7.188;2022-08-19T05:08:35;12.98;;;11.82;;
9940;SDS011;5009;50.656;7.188;2022-08-19T05:11:06;12.55;;;11.48;;
9940;SDS011;5009;50.656;7.188;2022-08-19T05:13:34;12.75;;;11.65;;
9940;SDS011;5009;50.656;7.188;2022-08-19T05:15:59;11.07;;;10.15;;
9940;SDS011;5009;50.656;7.188;2022-08-19T05:18:25;12.18;;;11.27;;
9940;SDS011;5009;50.656;7.188;2022-08-19T05:21:10;12.35;;;11.32;;
9940;SDS011;5009;50.656;7.188;2022-08-19T05:24:01;11.38;;;10.38;;
9940;SDS011;5009;50.656;7.188;2022-08-19T05:26:27;12.10;;;11.13;;
9940;SDS011;5009;50.656;7.188;2022-08-19T05:28:52;11.82;;;10.93;;
9940;SDS011;5009;50.656;7.188;2022-08-19T05:31:19;12.68;;;11.68;;
9940;SDS011;5009;50.656;7.188;2022-08-19T05:33:45;13.70;;;12.30;;
9940;SDS011;5009;50.656;7.188;2022-08-19T05:36:10;12.95;;;11.85;;
9940;SDS011;5009;50.656;7.188;2022-08-19T05:38:36;14.05;;;12.75;;
9940;SDS011;5009;50.656;7.188;2022-08-19T05:41:08;13.65;;;12.43;;
9940;SDS011;5009;50.656;7.188;2022-08-19T05:43:35;15.43;;;13.65;;
9940;SDS011;5009;50.656;7.188;2022-08-19T05:46:02;14.98;;;13.43;;
9940;SDS011;5009;50.656;7.188;2022-08-19T05:48:29;12.65;;;11.52;;
9940;SDS011;5009;50.656;7.188;2022-08-19T05:50:55;14.65;;;13.25;;
9940;SDS011;5009;50.656;7.188;2022-08-19T05:53:21;14.43;;;13.15;;
9940;SDS011;5009;50.656;7.188;2022-08-19T05:55:47;13.68;;;12.45;;
9940;SDS011;5009;50.656;7.188;2022-08-19T05:58:13;14.30;;;12.13;;
9940;SDS011;5009;50.656;7.188;2022-08-19T06:00:38;14.27;;;12.95;;
9940;SDS011;5009;50.656;7.188;2022-08-19T06:03:05;14.02;;;12.93;;
9940;SDS011;5009;50.656;7.188;2022-08-19T06:05:30;13.95;;;12.57;;
9940;SDS011;5009;50.656;7.188;2022-08-19T06:07:57;16.23;;;14.82;;
9940;SDS011;5009;50.656;7.188;2022-08-19T06:10:23;15.20;;;14.00;;
9940;SDS011;5009;50.656;7.188;2022-08-19T06:12:49;14.70;;;13.23;;
9940;SDS011;5009;50.656;7.188;2022-08-19T06:15:15;15.05;;;13.82;;
9940;SDS011;5009;50.656;7.188;2022-08-19T06:17:40;17.00;;;15.35;;
9940;SDS011;5009;50.656;7.188;2022-08-19T06:20:10;16.20;;;14.52;;
9940;SDS011;5009;50.656;7.188;2022-08-19T06:22:39;17.15;;;15.57;;
9940;SDS011;5009;50.656;7.188;2022-08-19T06:25:05;15.10;;;13.70;;
9940;SDS011;5009;50.656;7.188;2022-08-19T06:27:31;15.02;;;13.68;;
9940;SDS011;5009;50.656;7.188;2022-08-19T06:29:58;14.32;;;12.93;;
9940;SDS011;5009;50.656;7.188;2022-08-19T06:32:23;15.02;;;13.73;;
9940;SDS011;5009;50.656;7.188;2022-08-19T06:34:49;16.45;;;15.05;;
9940;SDS011;5009;50.656;7.188;2022-08-19T06:37:15;16.00;;;14.70;;
9940;SDS011;5009;50.656;7.188;2022-08-19T06:39:41;18.75;;;17.05;;
9940;SDS011;5009;50.656;7.188;2022-08-19T06:42:08;21.05;;;19.15;;
9940;SDS011;5009;50.656;7.188;2022-08-19T06:44:36;20.40;;;18.67;;
9940;SDS011;5009;50.656;7.188;2022-08-19T06:47:04;24.67;;;22.63;;
9940;SDS011;5009;50.656;7.188;2022-08-19T06:49:31;26.27;;;23.73;;
9940;SDS011;5009;50.656;7.188;2022-08-19T06:51:57;23.73;;;21.60;;
9940;SDS011;5009;50.656;7.188;2022-08-19T06:54:23;23.30;;;21.40;;
9940;SDS011;5009;50.656;7.188;2022-08-19T06:56:51;26.98;;;24.70;;
9940;SDS011;5009;50.656;7.188;2022-08-19T06:59:17;26.33;;;24.00;;
9940;SDS011;5009;50.656;7.188;2022-08-19T07:01:47;27.52;;;25.02;;
9940;SDS011;5009;50.656;7.188;2022-08-19T07:04:15;29.05;;;26.33;;
9940;SDS011;5009;50.656;7.188;2022-08-19T07:06:43;27.08;;;24.63;;
9940;SDS011;5009;50.656;7.188;2022-08-19T07:09:09;28.20;;;25.30;;
9940;SDS011;5009;50.656;7.188;2022-08-19T07:11:37;29.10;;;26.38;;
9940;SDS011;5009;50.656;7.188;2022-08-19T07:14:03;26.52;;;24.08;;
9940;SDS011;5009;50.656;7.188;2022-08-19T07:16:30;27.15;;;24.63;;
9940;SDS011;5009;50.656;7.188;2022-08-19T07:18:56;23.77;;;21.70;;
9940;SDS011;5009;50.656;7.188;2022-08-19T07:21:23;24.48;;;22.20;;
9940;SDS011;5009;50.656;7.188;2022-08-19T07:23:52;24.52;;;22.42;;
9940;SDS011;5009;50.656;7.188;2022-08-19T07:26:23;25.20;;;22.90;;
9940;SDS011;5009;50.656;7.188;2022-08-19T07:28:51;21.45;;;19.65;;
9940;SDS011;5009;50.656;7.188;2022-08-19T07:31:19;22.70;;;20.70;;
9940;SDS011;5009;50.656;7.188;2022-08-19T07:33:47;20.27;;;18.48;;
9940;SDS011;5009;50.656;7.188;2022-08-19T07:36:15;20.15;;;18.27;;
9940;SDS011;5009;50.656;7.188;2022-08-19T07:38:43;22.05;;;19.88;;
9940;SDS011;5009;50.656;7.188;2022-08-19T07:41:13;22.85;;;21.02;;
9940;SDS011;5009;50.656;7.188;2022-08-19T07:43:42;17.85;;;16.38;;
9940;SDS011;5009;50.656;7.188;2022-08-19T07:46:08;20.25;;;18.45;;
9940;SDS011;5009;50.656;7.188;2022-08-19T07:48:34;17.60;;;16.23;;
9940;SDS011;5009;50.656;7.188;2022-08-19T07:51:03;21.75;;;19.60;;
9940;SDS011;5009;50.656;7.188;2022-08-19T07:53:30;20.02;;;18.23;;
9940;SDS011;5009;50.656;7.188;2022-08-19T07:55:57;22.90;;;21.05;;
9940;SDS011;5009;50.656;7.188;2022-08-19T07:58:33;18.70;;;17.00;;
9940;SDS011;5009;50.656;7.188;2022-08-19T08:01:02;19.83;;;18.02;;
9940;SDS011;5009;50.656;7.188;2022-08-19T08:03:29;21.77;;;19.60;;
9940;SDS011;5009;50.656;7.188;2022-08-19T08:06:13;18.92;;;17.15;;
9940;SDS011;5009;50.656;7.188;2022-08-19T08:08:58;17.45;;;15.68;;
9940;SDS011;5009;50.656;7.188;2022-08-19T08:11:40;15.95;;;14.43;;
9940;SDS011;5009;50.656;7.188;2022-08-19T08:14:08;16.48;;;15.02;;
9940;SDS011;5009;50.656;7.188;2022-08-19T08:16:35;18.35;;;16.63;;
9940;SDS011;5009;50.656;7.188;2022-08-19T08:19:03;16.33;;;14.90;;
9940;SDS011;5009;50.656;7.188;2022-08-19T08:21:30;15.85;;;14.40;;
9940;SDS011;5009;50.656;7.188;2022-08-19T08:23:56;17.60;;;16.02;;
9940;SDS011;5009;50.656;7.188;2022-08-19T08:26:22;18.65;;;17.00;;
9940;SDS011;5009;50.656;7.188;2022-08-19T08:28:49;16.95;;;15.45;;
9940;SDS011;5009;50.656;7.188;2022-08-19T08:31:15;17.70;;;16.20;;
9940;SDS011;5009;50.656;7.188;2022-08-19T08:33:43;16.95;;;15.40;;
9940;SDS011;5009;50.656;7.188;2022-08-19T08:36:08;17.90;;;15.75;;
9940;SDS011;5009;50.656;7.188;2022-08-19T08:38:35;14.95;;;13.55;;
9940;SDS011;5009;50.656;7.188;2022-08-19T08:41:03;15.88;;;14.55;;
9940;SDS011;5009;50.656;7.188;2022-08-19T08:43:52;16.02;;;14.60;;
9940;SDS011;5009;50.656;7.188;2022-08-19T08:46:21;19.73;;;17.83;;
9940;SDS011;5009;50.656;7.188;2022-08-19T08:48:59;15.32;;;14.00;;
9940;SDS011;5009;50.656;7.188;2022-08-19T08:51:32;14.30;;;12.95;;
9940;SDS011;5009;50.656;7.188;2022-08-19T08:54:03;18.30;;;16.73;;
9940;SDS011;5009;50.656;7.188;2022-08-19T08:56:31;17.52;;;15.93;;
9940;SDS011;5009;50.656;7.188;2022-08-19T08:58:59;15.90;;;14.38;;
9940;SDS011;5009;50.656;7.188;2022-08-19T09:01:32;16.25;;;14.77;;
9940;SDS011;5009;50.656;7.188;2022-08-19T09:03:58;17.35;;;15.75;;
9940;SDS011;5009;50.656;7.188;2022-08-19T09:06:29;18.02;;;16.48;;
9940;SDS011;5009;50.656;7.188;2022-08-19T09:09:42;14.05;;;12.77;;
9940;SDS011;5009;50.656;7.188;2022-08-19T09:12:16;14.25;;;13.07;;
9940;SDS011;5009;50.656;7.188;2022-08-19T09:14:46;14.98;;;13.68;;
9940;SDS011;5009;50.656;7.188;2022-08-19T09:17:17;15.80;;;14.50;;
9940;SDS011;5009;50.656;7.188;2022-08-19T09:19:57;13.98;;;12.52;;
9940;SDS011;5009;50.656;7.188;2022-08-19T09:22:36;16.00;;;12.48;;
9940;SDS011;5009;50.656;7.188;2022-08-19T09:25:03;14.30;;;12.82;;
9940;SDS011;5009;50.656;7.188;2022-08-19T09:27:29;15.75;;;14.20;;
9940;SDS011;5009;50.656;7.188;2022-08-19T09:29:56;14.32;;;12.93;;
9940;SDS011;5009;50.656;7.188;2022-08-19T09:32:22;14.57;;;11.77;;
9940;SDS011;5009;50.656;7.188;2022-08-19T09:34:48;12.20;;;11.00;;
9940;SDS011;5009;50.656;7.188;2022-08-19T09:37:14;15.35;;;13.95;;
9940;SDS011;5009;50.656;7.188;2022-08-19T09:39:40;13.98;;;12.75;;
9940;SDS011;5009;50.656;7.188;2022-08-19T09:42:06;16.08;;;14.43;;
9940;SDS011;5009;50.656;7.188;2022-08-19T09:44:37;13.23;;;12.13;;
9940;SDS011;5009;50.656;7.188;2022-08-19T09:47:03;17.80;;;15.73;;
9940;SDS011;5009;50.656;7.188;2022-08-19T09:49:29;15.80;;;14.40;;
9940;SDS011;5009;50.656;7.188;2022-08-19T09:51:56;17.08;;;15.57;;
9940;SDS011;5009;50.656;7.188;2022-08-19T09:54:21;18.30;;;16.77;;
9940;SDS011;5009;50.656;7.188;2022-08-19T09:56:48;19.10;;;17.13;;
9940;SDS011;5009;50.656;7.188;2022-08-19T09:59:13;23.70;;;21.60;;
9940;SDS011;5009;50.656;7.188;2022-08-19T10:01:39;20.17;;;18.05;;
9940;SDS011;5009;50.656;7.188;2022-08-19T10:04:05;18.80;;;17.02;;
9940;SDS011;5009;50.656;7.188;2022-08-19T10:06:34;21.52;;;19.52;;
9940;SDS011;5009;50.656;7.188;2022-08-19T10:09:01;23.67;;;21.63;;
9940;SDS011;5009;50.656;7.188;2022-08-19T10:11:30;21.77;;;19.48;;
9940;SDS011;5009;50.656;7.188;2022-08-19T10:13:55;15.30;;;13.90;;
9940;SDS011;5009;50.656;7.188;2022-08-19T10:16:22;19.45;;;17.73;;
9940;SDS011;5009;50.656;7.188;2022-08-19T10:18:48;22.45;;;20.35;;
9940;SDS011;5009;50.656;7.188;2022-08-19T10:21:17;20.35;;;18.45;;
9940;SDS011;5009;50.656;7.188;2022-08-19T10:23:48;15.20;;;13.77;;
9940;SDS011;5009;50.656;7.188;2022-08-19T10:26:17;19.58;;;17.80;;
9940;SDS011;5009;50.656;7.188;2022-08-19T10:28:45;21.83;;;19.98;;
9940;SDS011;5009;50.656;7.188;2022-08-19T10:31:13;18.40;;;16.63;;
9940;SDS011;5009;50.656;7.188;2022-08-19T10:33:41;18.85;;;17.15;;
9940;SDS011;5009;50.656;7.188;2022-08-19T10:36:09;19.33;;;17.42;;
9940;SDS011;5009;50.656;7.188;2022-08-19T10:38:36;19.38;;;17.40;;
9940;SDS011;5009;50.656;7.188;2022-08-19T10:41:21;19.17;;;17.38;;
9940;SDS011;5009;50.656;7.188;2022-08-19T10:43:50;19.77;;;18.08;;
9940;SDS011;5009;50.656;7.188;2022-08-19T10:46:19;19.95;;;18.25;;
9940;SDS011;5009;50.656;7.188;2022-08-19T10:48:47;17.63;;;15.98;;
9940;SDS011;5009;50.656;7.188;2022-08-19T10:51:12;15.23;;;13.82;;
9940;SDS011;5009;50.656;7.188;2022-08-19T10:53:57;15.10;;;13.75;;
9940;SDS011;5009;50.656;7.188;2022-08-19T10:56:24;15.93;;;14.52;;
9940;SDS011;5009;50.656;7.188;2022-08-19T10:59:09;15.15;;;13.80;;
9940;SDS011;5009;50.656;7.188;2022-08-19T11:01:35;17.15;;;15.65;;
9940;SDS011;5009;50.656;7.188;2022-08-19T11:04:01;14.57;;;13.25;;
9940;SDS011;5009;50.656;7.188;2022-08-19T11:06:28;16.65;;;15.15;;
9940;SDS011;5009;50.656;7.188;2022-08-19T11:08:55;13.07;;;11.90;;
9940;SDS011;5009;50.656;7.188;2022-08-19T11:11:21;16.67;;;15.02;;
9940;SDS011;5009;50.656;7.188;2022-08-19T11:13:47;15.48;;;14.18;;
9940;SDS011;5009;50.656;7.188;2022-08-19T11:16:18;21.35;;;19.25;;
9940;SDS011;5009;50.656;7.188;2022-08-19T11:18:48;16.27;;;14.68;;
9940;SDS011;5009;50.656;7.188;2022-08-19T11:21:17;14.13;;;12.82;;
9940;SDS011;5009;50.656;7.188;2022-08-19T11:23:46;15.82;;;14.30;;
9940;SDS011;5009;50.656;7.188;2022-08-19T11:26:14;16.45;;;14.75;;
9940;SDS011;5009;50.656;7.188;2022-08-19T11:28:40;12.82;;;11.65;;
9940;SDS011;5009;50.656;7.188;2022-08-19T11:31:10;11.73;;;10.68;;
9940;SDS011;5009;50.656;7.188;2022-08-19T11:33:39;12.85;;;11.55;;
9940;SDS011;5009;50.656;7.188;2022-08-19T11:36:05;15.88;;;10.68;;
9940;SDS011;5009;50.656;7.188;2022-08-19T11:38:32;10.50;;;9.50;;
9940;SDS011;5009;50.656;7.188;2022-08-19T11:40:59;8.93;;;8.23;;
9940;SDS011;5009;50.656;7.188;2022-08-19T11:43:27;7.80;;;7.18;;
9940;SDS011;5009;50.656;7.188;2022-08-19T11:45:53;10.18;;;8.75;;
9940;SDS011;5009;50.656;7.188;2022-08-19T11:48:20;13.00;;;11.90;;
9940;SDS011;5009;50.656;7.188;2022-08-19T11:50:48;10.45;;;8.98;;
9940;SDS011;5009;50.656;7.188;2022-08-19T11:53:18;11.55;;;10.55;;
9940;SDS011;5009;50.656;7.188;2022-08-19T11:55:45;11.43;;;9.63;;
9940;SDS011;5009;50.656;7.188;2022-08-19T11:58:12;9.77;;;8.02;;
9940;SDS011;5009;50.656;7.188;2022-08-19T12:00:39;9.18;;;8.30;;
9940;SDS011;5009;50.656;7.188;2022-08-19T12:03:05;9.88;;;9.05;;
9940;SDS011;5009;50.656;7.188;2022-08-19T12:05:31;9.13;;;8.35;;
9940;SDS011;5009;50.656;7.188;2022-08-19T12:07:57;9.23;;;8.30;;
9940;SDS011;5009;50.656;7.188;2022-08-19T12:10:23;10.30;;;9.40;;
9940;SDS011;5009;50.656;7.188;2022-08-19T12:12:49;9.27;;;8.32;;
9940;SDS011;5009;50.656;7.188;2022-08-19T12:15:15;9.00;;;8.20;;
9940;SDS011;5009;50.656;7.188;2022-08-19T12:17:41;8.80;;;8.10;;
9940;SDS011;5009;50.656;7.188;2022-08-19T12:20:08;9.52;;;8.73;;
9940;SDS011;5009;50.656;7.188;2022-08-19T12:22:38;11.85;;;10.68;;
9940;SDS011;5009;50.656;7.188;2022-08-19T12:25:06;10.40;;;9.27;;
9940;SDS011;5009;50.656;7.188;2022-08-19T12:27:33;10.25;;;9.35;;
9940;SDS011;5009;50.656;7.188;2022-08-19T12:30:00;10.50;;;9.30;;
9940;SDS011;5009;50.656;7.188;2022-08-19T12:32:26;10.10;;;9.27;;
9940;SDS011;5009;50.656;7.188;2022-08-19T12:34:52;12.27;;;11.13;;
9940;SDS011;5009;50.656;7.188;2022-08-19T12:37:18;12.18;;;11.05;;
9940;SDS011;5009;50.656;7.188;2022-08-19T12:39:43;10.95;;;10.15;;
9940;SDS011;5009;50.656;7.188;2022-08-19T12:42:09;11.15;;;10.15;;
9940;SDS011;5009;50.656;7.188;2022-08-19T12:44:37;12.90;;;11.63;;
9940;SDS011;5009;50.656;7.188;2022-08-19T12:47:04;11.57;;;10.48;;
9940;SDS011;5009;50.656;7.188;2022-08-19T12:49:31;11.90;;;10.90;;
9940;SDS011;5009;50.656;7.188;2022-08-19T12:52:02;12.18;;;11.27;;
9940;SDS011;5009;50.656;7.188;2022-08-19T12:54:29;12.30;;;10.98;;
9940;SDS011;5009;50.656;7.188;2022-08-19T12:56:55;13.25;;;12.05;;
9940;SDS011;5009;50.656;7.188;2022-08-19T12:59:24;14.38;;;12.98;;
9940;SDS011;5009;50.656;7.188;2022-08-19T13:01:50;13.55;;;12.30;;
9940;SDS011;5009;50.656;7.188;2022-08-19T13:04:16;15.23;;;14.02;;
9940;SDS011;5009;50.656;7.188;2022-08-19T13:06:42;15.43;;;14.10;;
9940;SDS011;5009;50.656;7.188;2022-08-19T13:09:07;13.20;;;12.00;;
9940;SDS011;5009;50.656;7.188;2022-08-19T13:11:34;12.65;;;11.65;;
9940;SDS011;5009;50.656;7.188;2022-08-19T13:14:00;18.70;;;12.82;;
9940;SDS011;5009;50.656;7.188;2022-08-19T13:16:27;13.88;;;12.60;;
9940;SDS011;5009;50.656;7.188;2022-08-19T13:18:53;14.13;;;12.85;;
9940;SDS011;5009;50.656;7.188;2022-08-19T13:21:21;15.25;;;13.85;;
9940;SDS011;5009;50.656;7.188;2022-08-19T13:23:49;14.38;;;13.27;;
9940;SDS011;5009;50.656;7.188;2022-08-19T13:26:16;15.02;;;13.77;;
9940;SDS011;5009;50.656;7.188;2022-08-19T13:28:42;15.25;;;13.93;;
9940;SDS011;5009;50.656;7.188;2022-08-19T13:31:29;14.20;;;12.90;;
9940;SDS011;5009;50.656;7.188;2022-08-19T13:34:15;14.77;;;13.68;;
9940;SDS011;5009;50.656;7.188;2022-08-19T13:36:41;16.05;;;14.85;;
9940;SDS011;5009;50.656;7.188;2022-08-19T13:39:07;15.70;;;14.38;;
9940;SDS011;5009;50.656;7.188;2022-08-19T13:41:33;15.02;;;13.68;;
9940;SDS011;5009;50.656;7.188;2022-08-19T13:44:00;14.82;;;13.63;;
9940;SDS011;5009;50.656;7.188;2022-08-19T13:46:26;13.57;;;12.48;;
9940;SDS011;5009;50.656;7.188;2022-08-19T13:48:54;14.32;;;13.13;;
9940;SDS011;5009;50.656;7.188;2022-08-19T13:51:20;13.90;;;12.77;;
9940;SDS011;5009;50.656;7.188;2022-08-19T13:53:45;12.55;;;11.45;;
9940;SDS011;5009;50.656;7.188;2022-08-19T13:56:12;12.45;;;11.25;;
9940;SDS011;5009;50.656;7.188;2022-08-19T13:58:40;11.55;;;10.65;;
9940;SDS011;5009;50.656;7.188;2022-08-19T14:01:05;12.93;;;11.75;;
9940;SDS011;5009;50.656;7.188;2022-08-19T14:03:32;12.90;;;11.70;;
9940;SDS011;5009;50.656;7.188;2022-08-19T14:05:59;11.55;;;10.60;;
9940;SDS011;5009;50.656;7.188;2022-08-19T14:08:25;11.57;;;10.45;;
9940;SDS011;5009;50.656;7.188;2022-08-19T14:10:52;12.88;;;10.77;;
9940;SDS011;5009;50.656;7.188;2022-08-19T14:13:20;12.50;;;11.02;;
9940;SDS011;5009;50.656;7.188;2022-08-19T14:15:46;12.18;;;10.98;;
9940;SDS011;5009;50.656;7.188;2022-08-19T14:18:12;12.38;;;11.15;;
9940;SDS011;5009;50.656;7.188;2022-08-19T14:20:39;12.90;;;11.73;;
9940;SDS011;5009;50.656;7.188;2022-08-19T14:23:04;13.60;;;12.40;;
9940;SDS011;5009;50.656;7.188;2022-08-19T14:25:30;12.95;;;11.60;;
9940;SDS011;5009;50.656;7.188;2022-08-19T14:27:57;12.65;;;11.43;;
9940;SDS011;5009;50.656;7.188;2022-08-19T14:30:24;12.93;;;11.60;;
9940;SDS011;5009;50.656;7.188;2022-08-19T14:32:53;13.15;;;10.90;;
9940;SDS011;5009;50.656;7.188;2022-08-19T14:35:20;12.00;;;10.98;;
9940;SDS011;5009;50.656;7.188;2022-08-19T14:37:47;13.10;;;9.82;;
9940;SDS011;5009;50.656;7.188;2022-08-19T14:40:14;13.55;;;10.38;;
9940;SDS011;5009;50.656;7.188;2022-08-19T14:42:42;12.27;;;10.25;;
9940;SDS011;5009;50.656;7.188;2022-08-19T14:45:09;11.43;;;10.32;;
9940;SDS011;5009;50.656;7.188;2022-08-19T14:47:36;11.07;;;10.18;;
9940;SDS011;5009;50.656;7.188;2022-08-19T14:50:03;12.10;;;10.98;;
9940;SDS011;5009;50.656;7.188;2022-08-19T14:52:31;12.57;;;11.30;;
9940;SDS011;5009;50.656;7.188;2022-08-19T14:54:56;10.38;;;9.38;;
9940;SDS011;5009;50.656;7.188;2022-08-19T14:57:22;11.20;;;10.27;;
9940;SDS011;5009;50.656;7.188;2022-08-19T14:59:48;10.77;;;9.48;;